Time;durP1;ratioP1;P1;durP2;ratioP2;P2;SDS_P1;SDS_P2;PMS_P1;PMS_P2;Temp;Humidity;BMP_temperature;BMP_pressure;BME280_temperature;BME280_humidity;BME280_pressure;Samples;Min_cycle;Max_cycle;Signal;HPM_P1;HPM_P2
2023/03/27 00:00:46;;;;;;;7.47;2.50;;;1.40;99.90;;;;;;5061525;28;20047;-65
2023/03/27 00:03:14;;;;;;;7.07;2.00;;;1.40;99.90;;;;;;5062660;28;20044;-66
2023/03/27 00:05:40;;;;;;;9.82;3.17;;;1.40;99.90;;;;;;5060514;28;20076;-66
2023/03/27 00:08:10;;;;;;;12.40;2.85;;;1.30;99.90;;;;;;5058076;28;20079;-66
2023/03/27 00:10:37;;;;;;;8.25;2.20;;;1.30;99.90;;;;;;5059597;28;20036;-66
2023/03/27 00:13:05;;;;;;;7.85;2.45;;;1.30;99.90;;;;;;5059768;28;20694;-65
2023/03/27 00:15:32;;;;;;;11.68;2.08;;;1.40;99.90;;;;;;5066600;28;20079;-66
2023/03/27 00:18:02;;;;;;;10.23;2.90;;;1.50;99.90;;;;;;5061607;28;20456;-65
2023/03/27 00:20:30;;;;;;;10.40;2.63;;;1.20;99.90;;;;;;5061651;28;20307;-65
2023/03/27 00:22:56;;;;;;;9.05;2.42;;;1.20;99.90;;;;;;5061626;28;20041;-66
2023/03/27 00:25:25;;;;;;;9.00;2.63;;;1.20;99.90;;;;;;5063032;28;20042;-66
2023/03/27 00:27:57;;;;;;;12.27;2.40;;;1.30;99.90;;;;;;5075386;28;20048;-66
2023/03/27 00:30:27;;;;;;;5.88;2.25;;;1.10;99.90;;;;;;5061006;28;20102;-66
2023/03/27 00:32:55;;;;;;;8.07;2.28;;;1.20;99.90;;;;;;5062852;28;20503;-66
2023/03/27 00:35:26;;;;;;;9.48;2.67;;;1.10;99.90;;;;;;5061096;28;20052;-65
2023/03/27 00:37:52;;;;;;;9.43;2.30;;;1.00;99.90;;;;;;5057250;28;20065;-65
2023/03/27 00:40:18;;;;;;;11.57;2.67;;;1.10;99.90;;;;;;5060741;28;20051;-66
2023/03/27 00:42:50;;;;;;;10.82;2.45;;;1.00;99.90;;;;;;5061100;28;20037;-65
2023/03/27 00:45:21;;;;;;;12.40;2.60;;;1.00;99.90;;;;;;5059868;28;20561;-66
2023/03/27 00:47:55;;;;;;;16.50;3.30;;;1.00;99.90;;;;;;5073634;28;20691;-66
2023/03/27 00:50:29;;;;;;;10.27;2.40;;;1.00;99.90;;;;;;5062266;28;20394;-65
2023/03/27 00:53:00;;;;;;;7.85;2.33;;;1.10;99.90;;;;;;5079703;28;20093;-66
2023/03/27 00:55:31;;;;;;;11.45;2.50;;;1.00;99.90;;;;;;5062872;28;20521;-66
2023/03/27 00:58:03;;;;;;;9.27;2.38;;;1.10;99.90;;;;;;5063940;28;20123;-66
2023/03/27 01:00:31;;;;;;;13.95;2.83;;;1.10;99.90;;;;;;5064304;28;20040;-66
2023/03/27 01:02:57;;;;;;;9.75;2.15;;;1.30;99.90;;;;;;5064024;28;20094;-66
2023/03/27 01:05:24;;;;;;;6.20;2.00;;;1.10;99.90;;;;;;5080731;28;20455;-65
2023/03/27 01:07:51;;;;;;;6.10;2.15;;;1.20;99.90;;;;;;5065404;28;20486;-66
2023/03/27 01:10:17;;;;;;;11.70;2.25;;;1.10;99.90;;;;;;5046333;28;20397;-65
2023/03/27 01:13:09;;;;;;;10.98;2.67;;;1.10;99.90;;;;;;5077481;28;20040;-65
2023/03/27 01:16:08;;;;;;;18.23;2.92;;;1.10;99.90;;;;;;5063779;28;20665;-66
2023/03/27 01:18:46;;;;;;;13.25;3.20;;;1.10;99.90;;;;;;5064339;28;20459;-65
2023/03/27 01:21:12;;;;;;;6.35;2.72;;;1.10;99.90;;;;;;5062696;28;20068;-65
2023/03/27 01:24:13;;;;;;;9.65;2.20;;;1.10;99.90;;;;;;5063100;28;20040;-66
2023/03/27 01:26:57;;;;;;;7.40;2.35;;;1.10;99.90;;;;;;5060895;28;20437;-65
2023/03/27 01:29:35;;;;;;;8.82;1.80;;;1.10;99.90;;;;;;5059403;28;20041;-65
2023/03/27 01:32:48;;;;;;;7.05;2.20;;;1.00;99.90;;;;;;5064407;28;20044;-66
2023/03/27 01:35:51;;;;;;;13.27;2.90;;;1.00;99.90;;;;;;5063913;28;20090;-65
2023/03/27 01:38:36;;;;;;;;;;;1.00;99.90;;;;;;5062391;28;20040;-65
2023/03/27 01:41:20;;;;;;;6.55;2.15;;;1.00;99.90;;;;;;5065082;28;20292;-66
2023/03/27 01:43:57;;;;;;;6.88;2.28;;;1.00;99.90;;;;;;5063039;28;20080;-65
2023/03/27 01:46:40;;;;;;;5.60;2.17;;;1.00;99.90;;;;;;5063046;28;20055;-65
2023/03/27 01:49:42;;;;;;;8.65;2.40;;;1.00;99.90;;;;;;5064205;28;20448;-66
2023/03/27 01:52:18;;;;;;;3.97;1.90;;;1.00;99.90;;;;;;5050816;28;20128;-66
2023/03/27 01:54:52;;;;;;;8.65;2.08;;;1.10;99.90;;;;;;5060379;28;20044;-65
2023/03/27 01:57:24;;;;;;;7.80;2.08;;;1.10;99.90;;;;;;5065143;28;20051;-66
2023/03/27 02:00:10;;;;;;;5.63;1.88;;;1.10;99.90;;;;;;5057359;28;20052;-65
2023/03/27 02:02:38;;;;;;;5.72;2.35;;;1.20;99.90;;;;;;5070834;28;20117;-65
2023/03/27 02:05:22;;;;;;;10.93;2.65;;;1.20;99.90;;;;;;5066027;28;20067;-66
2023/03/27 02:07:56;;;;;;;8.80;2.00;;;1.20;99.90;;;;;;5062009;28;20108;-66
2023/03/27 02:10:31;;;;;;;7.63;2.25;;;1.20;99.90;;;;;;5061771;28;20043;-65
2023/03/27 02:13:06;;;;;;;8.13;2.25;;;1.20;99.90;;;;;;5063156;28;20032;-66
2023/03/27 02:15:36;;;;;;;6.25;1.77;;;1.20;99.90;;;;;;5062933;28;20044;-65
2023/03/27 02:18:08;;;;;;;6.68;2.17;;;1.20;99.90;;;;;;5072559;28;20116;-66
2023/03/27 02:20:37;;;;;;;6.93;2.08;;;1.20;99.90;;;;;;5065417;28;20041;-66
2023/03/27 02:23:04;;;;;;;8.57;1.77;;;1.20;99.90;;;;;;5063937;28;20524;-65
2023/03/27 02:25:39;;;;;;;9.77;2.17;;;1.20;99.90;;;;;;5064950;28;20041;-66
2023/03/27 02:28:21;;;;;;;9.02;2.55;;;1.20;99.90;;;;;;5058171;28;20493;-65
2023/03/27 02:31:08;;;;;;;9.57;2.63;;;1.20;99.90;;;;;;5063054;28;20098;-66
2023/03/27 02:33:49;;;;;;;6.38;2.13;;;1.20;99.90;;;;;;5059237;28;20128;-65
2023/03/27 02:36:48;;;;;;;3.47;1.60;;;1.20;99.90;;;;;;5061673;28;20064;-65
2023/03/27 02:39:22;;;;;;;9.70;2.17;;;1.20;99.90;;;;;;5040229;28;20045;-66
2023/03/27 02:41:57;;;;;;;9.23;3.35;;;1.10;99.90;;;;;;5063564;28;20071;-66
2023/03/27 02:44:39;;;;;;;7.18;2.67;;;1.10;99.90;;;;;;5063598;28;20072;-66
2023/03/27 02:47:11;;;;;;;12.25;2.25;;;1.10;99.90;;;;;;5057531;28;20058;-66
2023/03/27 02:49:50;;;;;;;8.65;2.17;;;1.10;99.90;;;;;;5064113;28;20039;-65
2023/03/27 02:52:38;;;;;;;5.93;2.13;;;1.10;99.90;;;;;;5058990;28;20028;-66
2023/03/27 02:55:19;;;;;;;6.45;2.15;;;1.00;99.90;;;;;;5060947;28;20045;-66
2023/03/27 02:57:48;;;;;;;7.57;1.95;;;1.10;99.90;;;;;;5062439;28;20054;-65
2023/03/27 03:00:24;;;;;;;6.88;1.75;;;0.90;99.90;;;;;;5066520;28;20028;-65
2023/03/27 03:03:04;;;;;;;6.25;2.60;;;0.90;99.90;;;;;;5043433;28;20050;-65
2023/03/27 03:05:31;;;;;;;7.40;2.05;;;0.80;99.90;;;;;;5062687;28;20044;-65
2023/03/27 03:07:57;;;;;;;8.35;2.50;;;0.80;99.90;;;;;;5060700;28;20063;-65
2023/03/27 03:10:25;;;;;;;6.18;2.22;;;0.70;99.90;;;;;;5064046;28;20486;-65
2023/03/27 03:12:51;;;;;;;5.80;2.70;;;0.70;99.90;;;;;;5061981;28;20033;-65
2023/03/27 03:15:17;;;;;;;6.47;1.95;;;0.80;99.90;;;;;;5065561;28;20114;-65
2023/03/27 03:17:44;;;;;;;11.60;2.90;;;0.70;99.90;;;;;;5061842;28;20044;-65
2023/03/27 03:20:11;;;;;;;6.03;1.90;;;0.70;99.90;;;;;;5062360;28;20122;-65
2023/03/27 03:22:38;;;;;;;6.05;2.00;;;0.80;99.90;;;;;;5062325;28;20135;-65
2023/03/27 03:25:09;;;;;;;12.65;2.30;;;0.90;99.90;;;;;;5061562;28;20041;-65
2023/03/27 03:27:36;;;;;;;6.18;2.03;;;0.90;99.90;;;;;;5060162;28;20037;-65
2023/03/27 03:30:03;;;;;;;7.10;1.98;;;1.00;99.90;;;;;;5065131;28;20024;-65
2023/03/27 03:32:29;;;;;;;8.68;1.90;;;1.00;99.90;;;;;;5058812;28;20032;-65
2023/03/27 03:34:56;;;;;;;12.85;2.35;;;1.00;99.90;;;;;;5061040;28;20418;-65
2023/03/27 03:37:27;;;;;;;8.77;2.08;;;1.10;99.90;;;;;;5043596;28;20374;-65
2023/03/27 03:39:56;;;;;;;7.03;2.22;;;1.10;99.90;;;;;;5061721;28;20047;-65
2023/03/27 03:42:22;;;;;;;10.10;2.05;;;1.00;99.90;;;;;;5062733;28;20421;-65
2023/03/27 03:44:47;;;;;;;5.13;2.00;;;1.10;99.90;;;;;;5061241;28;20039;-65
2023/03/27 03:47:16;;;;;;;7.85;2.40;;;1.00;99.90;;;;;;5062342;28;20075;-65
2023/03/27 03:49:42;;;;;;;12.20;2.22;;;1.00;99.90;;;;;;5060817;28;20119;-65
2023/03/27 03:52:08;;;;;;;5.38;1.98;;;0.90;99.90;;;;;;5059190;28;20095;-64
2023/03/27 03:54:37;;;;;;;11.95;2.33;;;1.20;99.90;;;;;;5062016;28;20033;-65
2023/03/27 03:57:04;;;;;;;12.80;2.50;;;0.80;99.90;;;;;;5042477;28;20393;-65
2023/03/27 03:59:30;;;;;;;16.58;2.38;;;0.80;99.90;;;;;;5061338;28;20048;-65
2023/03/27 04:01:56;;;;;;;6.13;2.00;;;0.80;99.90;;;;;;5061697;28;20072;-65
2023/03/27 04:04:21;;;;;;;9.00;2.00;;;0.80;99.90;;;;;;5060130;28;20115;-65
2023/03/27 04:06:47;;;;;;;10.00;2.25;;;0.80;99.90;;;;;;5063950;28;20056;-65
2023/03/27 04:09:13;;;;;;;8.80;2.30;;;0.80;99.90;;;;;;5026380;28;20060;-65
2023/03/27 04:11:39;;;;;;;8.55;2.20;;;0.80;99.90;;;;;;5062685;28;20051;-65
2023/03/27 04:14:05;;;;;;;8.27;1.90;;;0.70;99.90;;;;;;5060888;28;20478;-65
2023/03/27 04:16:30;;;;;;;12.63;3.53;;;0.70;99.90;;;;;;5063618;28;20126;-65
2023/03/27 04:18:56;;;;;;;5.45;2.00;;;0.70;99.90;;;;;;5061946;28;20119;-65
2023/03/27 04:21:25;;;;;;;5.65;2.28;;;0.70;99.90;;;;;;5042838;28;20041;-65
2023/03/27 04:23:51;;;;;;;6.45;2.15;;;0.60;99.90;;;;;;5059736;28;20281;-65
2023/03/27 04:26:25;;;;;;;7.20;2.15;;;0.60;99.90;;;;;;5064622;28;20051;-65
2023/03/27 04:28:51;;;;;;;6.90;2.17;;;0.60;99.90;;;;;;5063189;28;20041;-65
2023/03/27 04:31:17;;;;;;;8.23;2.20;;;0.60;99.90;;;;;;5064208;28;20066;-65
2023/03/27 04:33:45;;;;;;;6.93;2.17;;;0.70;99.90;;;;;;5063878;28;20060;-65
2023/03/27 04:36:15;;;;;;;10.45;1.75;;;0.60;99.90;;;;;;5065230;28;20053;-65
2023/03/27 04:38:40;;;;;;;8.13;2.30;;;0.80;99.90;;;;;;5066239;28;20040;-65
2023/03/27 04:41:12;;;;;;;9.77;2.28;;;0.60;99.90;;;;;;5047493;28;20094;-65
2023/03/27 04:43:40;;;;;;;6.60;2.15;;;0.60;99.90;;;;;;5065820;28;20045;-65
2023/03/27 04:46:07;;;;;;;13.25;2.58;;;0.50;99.90;;;;;;5062139;28;20532;-65
2023/03/27 04:48:33;;;;;;;9.02;2.58;;;0.50;99.90;;;;;;5065218;28;20079;-64
2023/03/27 04:51:02;;;;;;;9.52;2.50;;;0.50;99.90;;;;;;5066032;28;20102;-65
2023/03/27 04:53:29;;;;;;;11.82;2.47;;;0.40;99.90;;;;;;5043455;28;20141;-65
2023/03/27 04:55:56;;;;;;;7.35;2.20;;;-0.40;99.90;;;;;;5063234;28;20047;-65
2023/03/27 04:58:25;;;;;;;5.72;1.88;;;0.40;99.90;;;;;;5067570;28;20171;-64
2023/03/27 05:00:54;;;;;;;6.60;2.10;;;0.50;99.90;;;;;;5062454;28;20044;-64
2023/03/27 05:03:22;;;;;;;8.85;2.25;;;0.50;99.90;;;;;;5065793;28;20090;-64
2023/03/27 05:05:52;;;;;;;12.23;3.03;;;0.60;99.90;;;;;;5062574;28;20046;-65
2023/03/27 05:08:18;;;;;;;8.82;2.40;;;0.60;99.90;;;;;;5065689;28;20040;-65
2023/03/27 05:10:46;;;;;;;5.55;2.15;;;0.60;99.90;;;;;;5063160;28;20052;-65
2023/03/27 05:13:14;;;;;;;10.57;2.63;;;0.70;99.90;;;;;;5065433;28;20136;-65
2023/03/27 05:15:43;;;;;;;8.93;2.10;;;0.70;99.90;;;;;;5048037;28;20131;-65
2023/03/27 05:18:12;;;;;;;7.85;2.40;;;0.70;99.90;;;;;;5063594;28;20037;-64
2023/03/27 05:20:42;;;;;;;8.38;2.33;;;0.80;99.90;;;;;;5061827;28;20072;-65
2023/03/27 05:23:09;;;;;;;10.45;3.03;;;0.70;99.90;;;;;;5066715;28;20109;-64
2023/03/27 05:25:38;;;;;;;3.13;1.98;;;0.80;99.90;;;;;;5064441;28;20260;-64
2023/03/27 05:28:04;;;;;;;6.85;1.88;;;0.80;99.90;;;;;;5064194;28;20036;-64
2023/03/27 05:30:29;;;;;;;6.45;2.85;;;0.70;99.90;;;;;;5064609;28;20044;-64
2023/03/27 05:32:57;;;;;;;7.35;2.28;;;0.80;99.90;;;;;;5064618;28;20053;-65
2023/03/27 05:35:25;;;;;;;7.38;2.10;;;0.70;99.90;;;;;;5065517;28;20060;-64
2023/03/27 05:37:52;;;;;;;6.32;2.03;;;0.50;99.90;;;;;;5063890;28;20044;-65
2023/03/27 05:40:25;;;;;;;8.38;2.35;;;0.70;99.90;;;;;;5065575;28;20036;-64
2023/03/27 05:42:55;;;;;;;9.85;2.22;;;0.70;99.90;;;;;;5063198;28;20067;-64
2023/03/27 05:45:22;;;;;;;14.02;2.65;;;0.70;99.90;;;;;;5045601;28;20055;-65
2023/03/27 05:47:52;;;;;;;9.90;2.13;;;0.80;99.90;;;;;;5063935;28;21413;-65
2023/03/27 05:50:24;;;;;;;6.53;2.50;;;0.70;99.90;;;;;;5062636;28;20032;-64
2023/03/27 05:53:06;;;;;;;12.40;2.65;;;0.70;99.90;;;;;;5065119;28;20119;-64
2023/03/27 05:55:32;;;;;;;7.05;2.25;;;0.70;99.90;;;;;;5062949;28;20036;-64
2023/03/27 05:57:59;;;;;;;5.80;2.25;;;0.80;99.90;;;;;;5062801;28;20041;-64
2023/03/27 06:00:26;;;;;;;5.93;2.40;;;0.80;99.90;;;;;;5065412;28;20040;-64
2023/03/27 06:02:56;;;;;;;10.23;2.50;;;0.80;99.90;;;;;;5065871;28;20541;-64
2023/03/27 06:05:22;;;;;;;8.90;2.42;;;0.80;99.90;;;;;;5061325;28;20485;-64
2023/03/27 06:07:49;;;;;;;8.70;2.70;;;1.10;99.90;;;;;;5062276;28;20040;-65
2023/03/27 06:10:19;;;;;;;8.18;2.42;;;0.90;99.90;;;;;;5061791;28;20082;-64
2023/03/27 06:12:46;;;;;;;5.65;2.30;;;0.90;99.90;;;;;;5064360;28;20067;-64
2023/03/27 06:15:14;;;;;;;8.10;2.20;;;1.00;99.90;;;;;;5065138;28;20040;-65
2023/03/27 06:17:41;;;;;;;8.27;2.33;;;0.90;99.90;;;;;;5057347;28;20115;-64
2023/03/27 06:20:13;;;;;;;6.65;2.30;;;1.00;99.90;;;;;;5059945;28;20482;-65
2023/03/27 06:22:45;;;;;;;6.65;1.90;;;1.10;99.90;;;;;;5064225;28;20040;-65
2023/03/27 06:25:12;;;;;;;11.25;2.92;;;1.10;99.90;;;;;;5066598;28;20032;-65
2023/03/27 06:27:39;;;;;;;5.28;2.13;;;1.10;99.90;;;;;;5068435;28;20024;-65
2023/03/27 06:30:06;;;;;;;13.77;2.78;;;1.20;99.90;;;;;;5052535;28;20115;-64
2023/03/27 06:32:35;;;;;;;9.38;2.42;;;1.20;99.90;;;;;;5062826;28;20049;-65
2023/03/27 06:35:02;;;;;;;4.60;1.80;;;1.30;99.90;;;;;;5048752;28;20229;-65
2023/03/27 06:37:32;;;;;;;8.77;1.92;;;1.40;99.90;;;;;;5067024;28;20051;-64
2023/03/27 06:39:59;;;;;;;7.10;2.05;;;1.50;99.90;;;;;;5064258;28;20430;-64
2023/03/27 06:42:24;;;;;;;10.48;2.40;;;1.60;99.90;;;;;;5067735;28;20516;-64
2023/03/27 06:44:50;;;;;;;5.30;1.90;;;1.60;99.90;;;;;;5068234;28;20029;-65
2023/03/27 06:47:16;;;;;;;8.02;1.75;;;1.70;99.90;;;;;;5068417;28;20108;-65
2023/03/27 06:49:46;;;;;;;7.30;2.00;;;1.70;99.90;;;;;;5047228;28;20036;-65
2023/03/27 06:52:16;;;;;;;13.27;1.92;;;1.70;99.90;;;;;;5057453;28;20526;-65
2023/03/27 06:54:42;;;;;;;7.68;2.03;;;1.80;99.90;;;;;;5069570;28;20374;-65
2023/03/27 06:57:08;;;;;;;6.70;1.52;;;1.80;99.90;;;;;;5067773;28;20099;-65
2023/03/27 06:59:33;;;;;;;2.47;1.38;;;1.90;99.90;;;;;;5066811;28;20461;-65
2023/03/27 07:02:00;;;;;;;6.78;1.55;;;2.00;99.90;;;;;;5060929;28;20150;-64
2023/03/27 07:04:28;;;;;;;5.38;1.60;;;2.10;99.90;;;;;;5066028;28;20024;-65
2023/03/27 07:06:54;;;;;;;5.65;1.35;;;2.20;99.90;;;;;;5067580;28;20522;-65
2023/03/27 07:09:20;;;;;;;6.47;1.38;;;2.20;99.90;;;;;;5063131;28;20079;-65
2023/03/27 07:11:46;;;;;;;4.35;1.13;;;2.30;99.90;;;;;;5065595;28;20414;-65
2023/03/27 07:14:12;;;;;;;3.95;1.67;;;2.50;99.90;;;;;;5064936;28;20037;-65
2023/03/27 07:16:38;;;;;;;6.18;1.73;;;2.50;99.90;;;;;;5060505;28;20036;-65
2023/03/27 07:19:04;;;;;;;4.10;0.93;;;2.60;99.90;;;;;;5064940;28;20074;-65
2023/03/27 07:21:30;;;;;;;3.83;1.10;;;2.70;99.90;;;;;;5068231;28;20493;-65
2023/03/27 07:23:56;;;;;;;5.65;1.52;;;2.80;99.90;;;;;;5055946;28;20363;-65
2023/03/27 07:26:22;;;;;;;2.53;1.25;;;2.90;99.90;;;;;;5068174;28;20088;-65
2023/03/27 07:28:49;;;;;;;3.28;1.20;;;3.10;99.90;;;;;;5052749;28;20065;-65
2023/03/27 07:31:15;;;;;;;9.15;1.45;;;3.20;99.90;;;;;;5069373;28;20527;-65
2023/03/27 07:33:41;;;;;;;4.78;1.30;;;3.30;99.90;;;;;;5068202;28;20562;-65
2023/03/27 07:36:08;;;;;;;6.60;1.05;;;3.50;99.90;;;;;;5067465;28;20045;-67
2023/03/27 07:38:34;;;;;;;4.03;1.17;;;3.80;99.90;;;;;;5064965;28;20044;-65
2023/03/27 07:41:05;;;;;;;8.02;1.60;;;4.40;99.90;;;;;;5065038;28;20467;-65
2023/03/27 07:43:33;;;;;;;2.17;1.15;;;5.20;99.90;;;;;;5062060;28;20623;-65
2023/03/27 07:46:00;;;;;;;4.82;1.23;;;5.90;99.90;;;;;;5037069;28;20051;-65
2023/03/27 07:48:26;;;;;;;2.80;0.98;;;6.40;99.90;;;;;;5053315;28;20131;-65
2023/03/27 07:50:57;;;;;;;3.60;1.02;;;6.80;99.90;;;;;;5050371;28;20045;-65
2023/03/27 07:53:24;;;;;;;2.80;1.30;;;7.20;99.90;;;;;;5049128;28;20051;-65
2023/03/27 07:55:52;;;;;;;4.32;1.55;;;7.70;99.90;;;;;;5049654;28;20048;-66
2023/03/27 07:58:20;;;;;;;3.83;1.77;;;8.10;99.90;;;;;;5051747;28;20523;-65
2023/03/27 08:00:51;;;;;;;10.35;1.70;;;8.60;99.90;;;;;;5056563;28;20113;-65
2023/03/27 08:03:19;;;;;;;4.50;1.15;;;8.70;99.90;;;;;;5036421;28;20059;-65
2023/03/27 08:05:52;;;;;;;3.80;1.42;;;8.90;99.90;;;;;;5055299;28;20112;-65
2023/03/27 08:08:22;;;;;;;5.90;1.55;;;9.30;99.90;;;;;;5061167;28;20029;-65
2023/03/27 08:10:49;;;;;;;6.82;1.20;;;9.30;99.90;;;;;;5038634;28;20074;-65
2023/03/27 08:13:15;;;;;;;5.32;1.42;;;9.10;99.90;;;;;;5056485;28;20086;-65
2023/03/27 08:15:41;;;;;;;7.85;1.95;;;9.20;99.90;;;;;;5060253;28;20086;-66
2023/03/27 08:18:07;;;;;;;5.53;1.83;;;9.30;99.90;;;;;;5041548;28;20476;-65
2023/03/27 08:20:33;;;;;;;5.25;1.63;;;9.40;99.90;;;;;;5054158;28;20400;-66
2023/03/27 08:22:59;;;;;;;4.55;1.65;;;9.60;99.90;;;;;;5058647;28;20045;-66
2023/03/27 08:25:28;;;;;;;6.35;2.83;;;9.60;99.90;;;;;;5052434;28;20427;-65
2023/03/27 08:27:54;;;;;;;5.13;1.40;;;9.90;99.90;;;;;;5056687;28;20048;-65
2023/03/27 08:30:22;;;;;;;3.13;1.33;;;9.10;99.90;;;;;;5050226;28;20094;-65
2023/03/27 08:32:48;;;;;;;9.02;2.10;;;9.00;99.90;;;;;;5051932;28;20401;-65
2023/03/27 08:35:14;;;;;;;5.30;1.83;;;9.10;99.90;;;;;;5054189;28;20052;-66
2023/03/27 08:37:40;;;;;;;6.97;1.67;;;9.10;99.90;;;;;;5053071;28;20049;-65
2023/03/27 08:40:16;;;;;;;4.45;1.73;;;8.70;99.90;;;;;;5051227;28;20119;-65
2023/03/27 08:42:53;;;;;;;2.40;1.00;;;7.80;99.90;;;;;;5055104;28;20038;-65
2023/03/27 08:45:25;;;;;;;5.78;1.65;;;6.70;99.90;;;;;;5057060;28;20044;-65
2023/03/27 08:48:22;;;;;;;1.80;1.00;;;6.40;99.90;;;;;;5058008;28;20485;-65
2023/03/27 08:50:51;;;;;;;4.82;1.30;;;7.10;99.90;;;;;;5056846;28;20052;-65
2023/03/27 08:53:49;;;;;;;2.50;1.02;;;7.70;99.90;;;;;;5037354;28;20494;-66
2023/03/27 08:56:17;;;;;;;4.55;1.45;;;8.10;99.90;;;;;;5037316;28;20430;-65
2023/03/27 08:58:44;;;;;;;3.67;1.35;;;8.30;99.90;;;;;;5056781;28;20040;-66
2023/03/27 09:01:29;;;;;;;8.07;1.75;;;8.30;99.90;;;;;;5061724;28;20124;-66
2023/03/27 09:04:38;;;;;;;3.50;1.08;;;8.60;99.90;;;;;;5056132;28;20587;-66
2023/03/27 09:07:07;;;;;;;3.05;1.30;;;9.10;99.90;;;;;;5057057;28;20051;-65
2023/03/27 09:09:51;;;;;;;2.33;1.25;;;9.20;99.90;;;;;;5062868;28;20521;-66
2023/03/27 09:12:30;;;;;;;3.75;1.30;;;9.50;99.90;;;;;;5057233;28;20112;-65
2023/03/27 09:15:10;;;;;;;3.40;1.38;;;9.00;99.90;;;;;;5054924;28;20516;-66
2023/03/27 09:17:54;;;;;;;3.53;1.13;;;9.40;99.90;;;;;;5057012;28;20033;-66
2023/03/27 09:20:33;;;;;;;3.10;0.95;;;9.80;99.90;;;;;;5050917;28;20106;-65
2023/03/27 09:23:22;;;;;;;3.15;1.50;;;10.10;99.30;;;;;;5062577;28;20040;-65
2023/03/27 09:25:56;;;;;;;2.20;1.00;;;10.50;99.50;;;;;;5034098;28;20071;-65
2023/03/27 09:28:34;;;;;;;10.25;1.83;;;10.30;98.40;;;;;;5049875;28;20045;-65
2023/03/27 09:31:21;;;;;;;2.45;1.30;;;10.60;98.80;;;;;;5055694;28;20036;-66
2023/03/27 09:33:47;;;;;;;3.40;1.50;;;10.60;98.20;;;;;;5067889;28;20037;-66
2023/03/27 09:36:13;;;;;;;3.78;1.48;;;11.20;99.20;;;;;;5033126;28;20134;-66
2023/03/27 09:38:43;;;;;;;5.55;1.60;;;11.10;97.30;;;;;;5034754;28;20089;-66
2023/03/27 09:41:15;;;;;;;2.80;1.20;;;11.20;96.50;;;;;;5053605;28;20040;-65
2023/03/27 09:43:56;;;;;;;7.00;1.30;;;11.60;97.00;;;;;;5055293;28;20048;-66
2023/03/27 09:46:25;;;;;;;5.75;1.65;;;11.40;96.30;;;;;;5053593;28;20078;-66
2023/03/27 09:49:11;;;;;;;6.30;1.35;;;10.90;97.20;;;;;;5054310;28;20035;-67
2023/03/27 09:51:38;;;;;;;3.08;1.38;;;10.70;97.40;;;;;;5054448;28;20173;-67
2023/03/27 09:54:05;;;;;;;4.13;1.10;;;10.00;96.80;;;;;;5035075;28;20057;-66
2023/03/27 09:56:39;;;;;;;6.75;1.80;;;9.90;97.70;;;;;;5050613;28;20099;-66
2023/03/27 09:59:19;;;;;;;8.85;1.75;;;9.20;97.90;;;;;;5051972;28;20082;-66
2023/03/27 10:01:49;;;;;;;4.20;1.40;;;9.10;98.90;;;;;;5050688;28;20052;-66
2023/03/27 10:04:21;;;;;;;4.30;1.45;;;9.30;98.70;;;;;;5062229;28;20685;-66
2023/03/27 10:07:07;;;;;;;5.97;1.50;;;9.60;99.50;;;;;;5054013;28;20045;-66
2023/03/27 10:09:37;;;;;;;5.75;1.50;;;10.00;98.80;;;;;;5049899;28;20044;-67
2023/03/27 10:12:06;;;;;;;3.22;1.30;;;10.10;98.70;;;;;;5049476;28;20044;-66
2023/03/27 10:14:43;;;;;;;3.45;1.10;;;10.20;97.70;;;;;;5051366;28;20049;-66
2023/03/27 10:17:24;;;;;;;1.95;1.05;;;9.20;98.10;;;;;;5058082;28;20036;-66
2023/03/27 10:20:03;;;;;;;4.63;1.42;;;9.70;99.40;;;;;;5064875;28;20425;-66
2023/03/27 10:22:49;;;;;;;1.90;0.93;;;9.70;98.50;;;;;;5064285;28;20059;-66
2023/03/27 10:25:25;;;;;;;2.60;0.93;;;9.10;99.00;;;;;;5068786;28;20083;-66
2023/03/27 10:27:53;;;;;;;2.80;0.77;;;9.10;99.40;;;;;;5069867;28;20044;-66
2023/03/27 10:30:24;;;;;;;7.28;2.50;;;9.10;99.30;;;;;;5069433;28;20040;-66
2023/03/27 10:32:50;;;;;;;1.08;0.93;;;9.30;98.80;;;;;;5069299;28;21140;-66
2023/03/27 10:35:25;;;;;;;1.30;0.93;;;9.90;96.60;;;;;;5061317;28;20064;-66
2023/03/27 10:37:52;;;;;;;3.83;1.00;;;10.60;97.30;;;;;;5068197;28;20041;-66
2023/03/27 10:40:25;;;;;;;3.30;1.10;;;10.80;96.80;;;;;;5068347;28;20062;-66
2023/03/27 10:42:54;;;;;;;3.75;1.65;;;10.70;95.20;;;;;;5069562;28;20029;-66
2023/03/27 10:45:23;;;;;;;4.22;1.50;;;9.50;95.60;;;;;;5047880;28;20119;-66
2023/03/27 10:47:53;;;;;;;1.75;0.77;;;9.90;95.70;;;;;;5065294;28;20090;-66
2023/03/27 10:50:53;;;;;;;2.08;0.55;;;10.80;95.30;;;;;;5068031;28;20079;-66
2023/03/27 10:53:35;;;;;;;0.73;0.63;;;11.30;91.70;;;;;;5041916;28;20441;-66
2023/03/27 10:56:12;;;;;;;1.85;0.70;;;11.70;91.10;;;;;;5065932;28;20149;-66
2023/03/27 10:58:46;;;;;;;1.17;0.88;;;12.60;92.30;;;;;;5059955;28;20040;-66
2023/03/27 11:01:23;;;;;;;2.75;0.60;;;12.20;91.50;;;;;;5048683;28;20040;-66
2023/03/27 11:04:02;;;;;;;2.55;0.80;;;9.90;93.30;;;;;;5069482;28;20512;-66
2023/03/27 11:06:33;;;;;;;6.95;1.00;;;8.30;96.10;;;;;;5066088;28;20048;-66
2023/03/27 11:09:08;;;;;;;2.40;0.98;;;7.20;97.70;;;;;;5066636;28;20260;-66
2023/03/27 11:11:41;;;;;;;6.88;1.38;;;6.70;99.20;;;;;;5066963;28;20227;-65
2023/03/27 11:14:21;;;;;;;3.58;1.08;;;6.40;99.90;;;;;;5061014;28;20037;-66
2023/03/27 11:16:54;;;;;;;2.25;1.05;;;7.60;99.90;;;;;;5064895;28;21885;-66
2023/03/27 11:19:33;;;;;;;7.47;1.60;;;8.70;99.30;;;;;;5053438;28;20127;-66
2023/03/27 11:22:06;;;;;;;2.60;1.05;;;9.70;98.50;;;;;;5065313;28;20497;-66
2023/03/27 11:24:50;;;;;;;4.20;1.30;;;10.00;97.40;;;;;;5066817;28;20045;-66
2023/03/27 11:27:38;;;;;;;4.00;0.98;;;10.10;96.80;;;;;;5064029;28;20079;-66
2023/03/27 11:30:07;;;;;;;2.67;0.75;;;10.10;94.60;;;;;;5066802;28;20047;-66
2023/03/27 11:32:47;;;;;;;1.40;0.77;;;9.80;94.50;;;;;;5060371;28;20406;-66
2023/03/27 11:35:22;;;;;;;3.45;0.80;;;9.40;93.40;;;;;;5065767;28;20048;-66
2023/03/27 11:38:00;;;;;;;3.80;1.38;;;9.50;94.30;;;;;;5062840;28;20040;-66
2023/03/27 11:40:35;;;;;;;3.08;1.15;;;9.30;93.00;;;;;;5066460;28;20049;-65
2023/03/27 11:43:02;;;;;;;3.40;1.42;;;9.40;94.70;;;;;;5066008;28;20039;-66
2023/03/27 11:45:55;;;;;;;4.15;1.00;;;9.40;94.50;;;;;;5068503;28;20443;-66
2023/03/27 11:48:32;;;;;;;2.25;1.02;;;9.50;95.00;;;;;;5064693;28;20037;-66
2023/03/27 11:51:15;;;;;;;1.77;0.82;;;9.40;95.30;;;;;;5045655;28;20047;-66
2023/03/27 11:53:56;;;;;;;3.25;1.02;;;8.90;93.20;;;;;;5066984;28;20045;-66
2023/03/27 11:56:34;;;;;;;2.20;1.20;;;8.70;94.50;;;;;;5068197;28;20086;-66
2023/03/27 11:59:07;;;;;;;1.85;1.10;;;8.90;95.40;;;;;;5064007;28;20552;-66
2023/03/27 12:01:42;;;;;;;4.47;1.10;;;9.00;94.10;;;;;;5068984;28;20032;-66
2023/03/27 12:04:45;;;;;;;4.82;1.58;;;9.10;94.20;;;;;;5067621;28;20514;-66
2023/03/27 12:07:17;;;;;;;;;;;9.30;93.00;;;;;;5066995;28;20508;-66
2023/03/27 12:09:51;;;;;;;4.85;0.98;;;9.40;92.20;;;;;;5067140;28;19916;-66
2023/03/27 12:12:39;;;;;;;2.53;1.33;;;9.70;93.30;;;;;;5056720;28;20119;-66
2023/03/27 12:15:07;;;;;;;5.47;1.30;;;10.00;93.10;;;;;;5068840;28;20064;-66
2023/03/27 12:17:41;;;;;;;3.30;0.93;;;9.70;91.80;;;;;;5064652;28;20109;-66
2023/03/27 12:20:23;;;;;;;3.00;1.02;;;9.40;91.90;;;;;;5066187;28;20048;-66
2023/03/27 12:23:11;;;;;;;2.13;0.88;;;9.10;96.30;;;;;;5065258;28;20097;-66
2023/03/27 12:26:09;;;;;;;3.10;0.70;;;8.10;98.50;;;;;;5060939;28;20037;-65
2023/03/27 12:29:11;;;;;;;2.80;1.08;;;7.50;99.50;;;;;;5018089;28;20102;-65
2023/03/27 12:32:06;;;;;;;4.03;1.25;;;7.00;99.90;;;;;;5006645;28;20168;-65
2023/03/27 12:34:48;;;;;;;3.30;1.35;;;7.10;99.90;;;;;;5039180;28;20074;-66
2023/03/27 12:37:16;;;;;;;5.10;1.73;;;7.60;99.90;;;;;;5058531;28;20047;-66
2023/03/27 12:39:52;;;;;;;4.63;1.70;;;7.90;99.90;;;;;;5061131;28;20517;-66
2023/03/27 12:42:49;;;;;;;5.68;1.23;;;8.20;99.90;;;;;;5061717;28;20032;-66
2023/03/27 12:45:23;;;;;;;7.25;1.00;;;8.50;97.90;;;;;;5055428;28;20064;-67
2023/03/27 12:48:10;;;;;;;2.30;0.93;;;9.00;97.80;;;;;;5062383;28;20055;-67
2023/03/27 12:50:51;;;;;;;3.25;1.08;;;9.10;97.60;;;;;;5066501;28;20051;-67
2023/03/27 12:53:26;;;;;;;4.18;1.15;;;9.30;97.20;;;;;;5064851;28;20111;-66
2023/03/27 12:56:16;;;;;;;4.10;1.17;;;9.20;96.50;;;;;;5064118;28;20055;-66
2023/03/27 12:58:44;;;;;;;6.20;1.73;;;9.00;96.40;;;;;;5066089;28;20048;-66
2023/03/27 13:01:17;;;;;;;5.72;2.22;;;8.50;97.80;;;;;;5062474;28;20071;-66
2023/03/27 13:04:21;;;;;;;3.75;1.20;;;8.10;97.80;;;;;;5066739;28;20390;-66
2023/03/27 13:06:50;;;;;;;7.72;1.27;;;7.60;95.60;;;;;;5062901;28;20036;-67
2023/03/27 13:09:41;;;;;;;21.52;2.50;;;7.40;95.80;;;;;;5061931;28;20631;-67
2023/03/27 13:12:38;;;;;;;6.20;1.40;;;7.50;97.40;;;;;;5060574;28;20509;-67
2023/03/27 13:15:22;;;;;;;4.43;1.23;;;8.00;95.70;;;;;;5061675;28;20062;-65
2023/03/27 13:18:00;;;;;;;3.08;1.15;;;8.10;94.30;;;;;;5062906;28;20032;-67
2023/03/27 13:20:31;;;;;;;2.90;1.27;;;8.50;93.60;;;;;;5062585;28;20447;-66
2023/03/27 13:23:27;;;;;;;5.32;1.65;;;8.70;93.30;;;;;;5065226;28;20040;-65
2023/03/27 13:26:35;;;;;;;3.28;1.20;;;8.40;93.90;;;;;;5061693;28;20074;-66